FW1958 Treasure Island FL US current weather conditions

sailwx.info

Wind from 329 at 6 knots gusting 13

Air temperature 13.9° C
Dewpoint 9.9° C

Last reported at 2019-Nov-13 09:00 UTC.
Time now 2019-Nov-13 09:46 UTC

Location: N 27°46' W 082°46'.
View on Google Maps.

See reports from other nearby stations

  
Tides and Currents Weather Stations Pressure Air Temp Water Temp Dewpoint Dewpoint Depression Visibility Wind Speed Wind Dir Waves Ship Positions
date/time (UTC)wind fromknots sea level pressurealtimeterstation pressurevisibilityair tempwater tempwave heightnotes
2019-Nov-13 09:00 329 6 gusting 13 13.9
2019-Nov-13 08:45 022 5 gusting 13 14.4
2019-Nov-13 08:30 355 4 gusting 12 14.4
2019-Nov-13 08:16 348 6 gusting 13 14.4
2019-Nov-13 08:01 355 6 gusting 13 14.4
2019-Nov-13 07:47 355 6 gusting 13 14.4
2019-Nov-13 07:31 360 9 gusting 14 15.0
2019-Nov-13 07:16 311 8 gusting 14 15.6
2019-Nov-13 07:01 017 9 gusting 13 16.1
2019-Nov-13 06:46 350 6 gusting 12 16.7
2019-Nov-13 06:31 010 6 gusting 13 16.7
2019-Nov-13 06:16 026 7 gusting 13 16.7
2019-Nov-13 06:01 009 7 gusting 13 17.2
2019-Nov-13 05:46 005 10 gusting 17 17.2
2019-Nov-13 05:31 346 8 gusting 15 17.2
2019-Nov-13 05:16 333 8 gusting 13 18.3
2019-Nov-13 05:00 350 8 gusting 13 18.3
2019-Nov-13 04:45 014 7 gusting 16 18.9
2019-Nov-13 04:31 330 7 gusting 12 19.4
2019-Nov-13 04:16 325 6 gusting 13 19.4
2019-Nov-13 04:00 349 7 gusting 12 20.6
2019-Nov-13 03:45 350 3 gusting 8 20.6
2019-Nov-13 03:30 310 4 gusting 9 20.6
2019-Nov-13 03:15 013 5 gusting 10 20.6
2019-Nov-13 03:00 323 6 gusting 12 21.1
2019-Nov-13 02:45 331 6 gusting 12 21.1
2019-Nov-13 02:30 300 6 gusting 13 21.1
2019-Nov-13 02:15 005 7 gusting 13 21.1
2019-Nov-13 02:00 351 9 gusting 14 21.1
2019-Nov-13 01:45 332 5 gusting 11 21.7
2019-Nov-13 01:31 016 5 gusting 11 21.7
2019-Nov-13 01:15 337 7 gusting 13 21.7
2019-Nov-13 01:00 345 6 gusting 12 21.7
2019-Nov-13 00:45 355 6 gusting 13 21.7
2019-Nov-13 00:30 332 6 gusting 10 21.7
2019-Nov-13 00:15 020 5 gusting 10 22.2
2019-Nov-13 00:00 328 6 gusting 13 22.2
2019-Nov-12 23:45 322 6 gusting 10 22.2
2019-Nov-12 23:17 348 6 gusting 9 22.8
2019-Nov-12 22:47 213 23.3
2019-Nov-12 22:32 252 23.9
2019-Nov-12 22:16 271 25.6
2019-Nov-12 22:03 261 0 gusting 3 25.6
2019-Nov-12 21:47 259 25.6
2019-Nov-12 21:31 238 25.6
2019-Nov-12 21:16 235 26.1
2019-Nov-12 21:01 271 26.7
2019-Nov-12 20:47 254 0 gusting 6 26.7
2019-Nov-12 20:32 233 0 gusting 6 26.7
2019-Nov-12 20:17 263 0 gusting 5 26.7
2019-Nov-12 20:01 164 27.2
2019-Nov-12 19:46 269 0 gusting 5 26.7
2019-Nov-12 19:32 254 0 gusting 6 27.2
2019-Nov-12 19:16 250 0 gusting 3 27.2
2019-Nov-12 19:01 147 27.2
2019-Nov-12 18:46 263 27.2
2019-Nov-12 18:31 211 0 gusting 6 26.7
2019-Nov-12 18:16 240 27.2
2019-Nov-12 18:01 285 0 gusting 2 27.2
2019-Nov-12 17:45 257 0 gusting 6 26.7
2019-Nov-12 17:31 216 3 gusting 9 26.1
2019-Nov-12 17:15 215 2 gusting 8 26.1
2019-Nov-12 17:00 166 4 gusting 9 25.6
2019-Nov-12 16:45 210 4 gusting 8 25.0
2019-Nov-12 16:30 221 4 gusting 7 25.0
2019-Nov-12 16:15 170 6 gusting 8 25.0
2019-Nov-12 16:00 194 6 gusting 8 24.4
2019-Nov-12 15:46 179 4 gusting 8 24.4
2019-Nov-12 15:30 173 4 gusting 6 24.4
2019-Nov-12 15:15 189 4 gusting 6 23.9
2019-Nov-12 15:00 175 3 gusting 6 24.4
2019-Nov-12 14:45 167 1 gusting 4 24.4
2019-Nov-12 14:30 172 2 gusting 6 23.9
2019-Nov-12 14:15 162 2 gusting 5 23.3
2019-Nov-12 14:00 155 3 gusting 6 23.3
2019-Nov-12 13:45 157 2 gusting 6 22.8
2019-Nov-12 13:30 159 0 gusting 3 22.8
2019-Nov-12 13:18 151 21.7
2019-Nov-12 13:02 151 0 gusting 1 21.7
2019-Nov-12 12:47 107 21.1
2019-Nov-12 12:33 167 20.6
2019-Nov-12 12:16 107 20.6
2019-Nov-12 12:02 161 20.0
2019-Nov-12 11:47 136 20.0
2019-Nov-12 11:31 115 20.0
2019-Nov-12 11:17 115 20.0
2019-Nov-12 11:01 116 0 gusting 3 20.6
2019-Nov-12 10:46 157 0 gusting 3 20.6
2019-Nov-12 10:31 127 20.6
2019-Nov-12 10:16 157 0 gusting 3 20.6
2019-Nov-12 10:02 121 20.0
2019-Nov-12 09:46 116 20.0
2019-Nov-12 09:31 125 20.0
2019-Nov-12 09:17 126 20.6
2019-Nov-12 09:01 130 20.6
2019-Nov-12 08:46 098 0 gusting 3 20.6
2019-Nov-12 08:32 100 0 gusting 1 20.6
2019-Nov-12 08:16 100 20.6
2019-Nov-12 08:02 100 20.6
2019-Nov-12 07:46 100 20.6
2019-Nov-12 07:31 100 20.6
2019-Nov-12 07:15 100 21.1
2019-Nov-12 07:01 100 21.1
2019-Nov-12 06:46 101 21.1
2019-Nov-12 06:30 101 21.1
2019-Nov-12 06:16 105 21.1
2019-Nov-12 06:01 105 21.7
2019-Nov-12 05:45 105 21.7
2019-Nov-12 05:31 105 21.7
2019-Nov-12 05:15 105 21.7
2019-Nov-12 05:00 106 21.7
2019-Nov-12 04:45 113 21.7
2019-Nov-12 04:31 066 21.7
2019-Nov-12 04:15 068 21.7
2019-Nov-12 04:00 062 21.7
2019-Nov-12 03:45 034 21.7
2019-Nov-12 03:30 042 21.7
2019-Nov-12 03:15 028 0 gusting 4 21.7
2019-Nov-12 03:00 005 2 gusting 5 22.2
2019-Nov-12 02:45 029 1 gusting 4 22.2
2019-Nov-12 02:30 026 2 gusting 5 22.2
2019-Nov-12 02:15 015 2 gusting 7 22.2
2019-Nov-12 02:00 038 2 gusting 5 22.2
2019-Nov-12 01:45 034 2 gusting 5 22.2
2019-Nov-12 01:30 026 2 gusting 6 22.8
2019-Nov-12 01:15 011 1 gusting 5 22.8
2019-Nov-12 01:00 345 3 gusting 7 22.8
2019-Nov-12 00:45 348 2 gusting 5 22.8
2019-Nov-12 00:30 336 2 gusting 5 22.8
2019-Nov-12 00:15 318 3 gusting 5 22.8
2019-Nov-12 00:00 344 1 gusting 3 23.3
2019-Nov-11 23:45 005 1 gusting 3 23.3
2019-Nov-11 23:30 329 1 gusting 4 23.9
2019-Nov-11 23:15 326 0 gusting 2 23.9
2019-Nov-11 23:00 333 23.9
2019-Nov-11 22:45 329 0 gusting 3 24.4
2019-Nov-11 22:30 333 0 gusting 3 24.4
2019-Nov-11 22:15 013 0 gusting 3 24.4
2019-Nov-11 22:01 315 1 gusting 6 25.0
2019-Nov-11 21:47 335 2 gusting 5 25.0
2019-Nov-11 21:32 319 2 gusting 8 25.0
2019-Nov-11 21:17 288 3 gusting 7 26.1
2019-Nov-11 20:47 279 2 gusting 7 26.1
2019-Nov-11 20:31 302 2 gusting 6 26.7
2019-Nov-11 20:16 273 27.2
2019-Nov-11 20:02 212 0 gusting 4 26.7
2019-Nov-11 19:46 199 3 gusting 6 26.7
2019-Nov-11 19:32 184 2 gusting 5 26.7
2019-Nov-11 19:16 196 3 gusting 7 26.1
2019-Nov-11 19:01 173 3 gusting 6 26.7
2019-Nov-11 18:46 146 0 gusting 5 26.7
2019-Nov-11 18:32 190 1 gusting 5 26.7
2019-Nov-11 18:16 090 0 gusting 5 27.2
2019-Nov-11 18:02 089 0 gusting 3 27.2
2019-Nov-11 17:46 171 1 gusting 6 26.1
2019-Nov-11 17:31 163 3 gusting 7 26.1
2019-Nov-11 17:16 126 4 gusting 9 26.1
2019-Nov-11 17:01 139 3 gusting 9 25.6
2019-Nov-11 16:46 122 3 gusting 11 25.6
2019-Nov-11 16:31 115 1 gusting 7 26.1
2019-Nov-11 16:16 049 1 gusting 5 25.6
2019-Nov-11 16:01 067 1 gusting 5 25.6
2019-Nov-11 15:45 050 1 gusting 4 25.0
2019-Nov-11 15:31 115 0 gusting 3 25.0
2019-Nov-11 15:15 042 0 gusting 4 24.4
2019-Nov-11 15:00 082 2 gusting 7 23.9
2019-Nov-11 14:45 034 1 gusting 6 23.3
2019-Nov-11 14:30 072 1 gusting 5 22.8
2019-Nov-11 14:15 050 1 gusting 5 22.2
2019-Nov-11 14:00 088 2 gusting 6 21.7
2019-Nov-11 13:45 051 1 gusting 5 21.1
2019-Nov-11 13:32 005 0 gusting 4 20.6
2019-Nov-11 13:17 080 0 gusting 4 20.0
2019-Nov-11 13:01 067 0 gusting 4 19.4
2019-Nov-11 12:46 041 1 gusting 5 18.9
2019-Nov-11 12:31 049 18.3
2019-Nov-11 12:18 026 0 gusting 3 18.3
2019-Nov-11 12:01 054 2 gusting 4 17.8
2019-Nov-11 11:47 053 0 gusting 4 17.8
2019-Nov-11 11:31 071 0 gusting 4 17.8
2019-Nov-11 11:16 095 17.8
2019-Nov-11 11:02 009 1 gusting 3 17.8
2019-Nov-11 10:46 080 0 gusting 4 17.8
2019-Nov-11 10:30 112 1 gusting 6 17.8
2019-Nov-11 10:16 088 17.8
2019-Nov-11 10:01 112 0 gusting 3 17.8
2019-Nov-11 09:46 021 17.8
2019-Nov-11 09:31 039 17.8
2019-Nov-11 09:16 095 1 gusting 3 17.8
2019-Nov-11 09:01 019 0 gusting 4 17.8